Time;durP1;ratioP1;P1;durP2;ratioP2;P2;SDS_P1;SDS_P2;PMS_P1;PMS_P2;Temp;Humidity;BMP_temperature;BMP_pressure;BME280_temperature;BME280_humidity;BME280_pressure;Samples;Min_cycle;Max_cycle;Signal;HPM_P1;HPM_P2
2023/04/06 00:00:40;;;;;;;2.50;2.40;;;;;;;;;;5091652;28;20228;-87
2023/04/06 00:03:08;;;;;;;1.87;1.77;;;;;;;;;;5092174;28;20204;-86
2023/04/06 00:05:37;;;;;;;3.63;3.30;;;;;;;;;;5092260;28;20200;-87
2023/04/06 00:08:07;;;;;;;10.33;9.07;;;;;;;;;;5091898;28;20198;-87
2023/04/06 00:10:35;;;;;;;19.03;13.73;;;;;;;;;;5092004;28;20204;-87
2023/04/06 00:13:04;;;;;;;19.60;15.30;;;;;;;;;;5091582;28;20193;-88
2023/04/06 00:15:34;;;;;;;20.00;13.30;;;;;;;;;;5091733;28;20200;-88
2023/04/06 00:18:03;;;;;;;16.87;12.47;;;;;;;;;;5091680;28;20196;-88
2023/04/06 00:20:31;;;;;;;12.27;8.13;;;;;;;;;;5091387;28;20197;-88
2023/04/06 00:23:00;;;;;;;28.40;18.87;;;;;;;;;;5091787;28;20206;-87
2023/04/06 00:25:28;;;;;;;24.63;15.00;;;;;;;;;;5091329;28;20229;-88
2023/04/06 00:27:57;;;;;;;28.53;15.73;;;;;;;;;;5091173;28;20272;-88
2023/04/06 00:30:26;;;;;;;23.60;17.37;;;;;;;;;;5091945;28;20245;-87
2023/04/06 00:32:56;;;;;;;26.77;18.57;;;;;;;;;;5091910;28;20205;-87
2023/04/06 00:35:24;;;;;;;19.77;14.07;;;;;;;;;;5091865;28;20200;-86
2023/04/06 00:37:53;;;;;;;24.57;17.90;;;;;;;;;;5091968;28;20262;-87
2023/04/06 00:40:21;;;;;;;21.77;15.20;;;;;;;;;;5091967;28;20228;-87
2023/04/06 00:42:50;;;;;;;23.73;17.60;;;;;;;;;;5091472;28;20205;-87
2023/04/06 00:45:20;;;;;;;21.17;14.97;;;;;;;;;;5091725;28;20193;-86
2023/04/06 00:47:49;;;;;;;23.20;15.30;;;;;;;;;;5091507;28;20197;-86
2023/04/06 00:50:19;;;;;;;22.80;16.53;;;;;;;;;;5091539;28;20225;-86
2023/04/06 00:52:48;;;;;;;20.47;15.07;;;;;;;;;;5091455;28;20193;-86
2023/04/06 00:55:16;;;;;;;23.80;16.10;;;;;;;;;;5091483;28;20193;-86
2023/04/06 00:57:45;;;;;;;25.20;17.53;;;;;;;;;;5093638;28;20197;-86
2023/04/06 01:00:14;;;;;;;23.27;16.13;;;;;;;;;;5094988;28;20213;-86
2023/04/06 01:02:44;;;;;;;19.13;14.87;;;;;;;;;;5095159;28;20201;-86
2023/04/06 01:05:13;;;;;;;19.90;14.70;;;;;;;;;;5095589;28;20204;-87
2023/04/06 01:07:43;;;;;;;21.17;13.93;;;;;;;;;;5095075;28;20208;-87
2023/04/06 01:10:12;;;;;;;19.53;15.07;;;;;;;;;;5095217;28;20188;-87
2023/04/06 01:12:40;;;;;;;17.03;13.57;;;;;;;;;;5095099;28;20247;-86
2023/04/06 01:15:10;;;;;;;17.57;13.10;;;;;;;;;;5094870;28;20228;-86
2023/04/06 01:17:38;;;;;;;18.10;13.63;;;;;;;;;;5095201;28;20246;-86
2023/04/06 01:20:08;;;;;;;16.20;12.67;;;;;;;;;;5095086;28;20217;-86
2023/04/06 01:22:37;;;;;;;19.00;14.53;;;;;;;;;;5094010;28;20232;-88
2023/04/06 01:25:06;;;;;;;14.13;12.10;;;;;;;;;;5094342;28;20205;-88
2023/04/06 01:27:35;;;;;;;18.10;14.07;;;;;;;;;;5094088;28;20233;-88
2023/04/06 01:30:04;;;;;;;15.67;12.23;;;;;;;;;;5094599;28;20197;-88
2023/04/06 01:32:33;;;;;;;15.40;12.87;;;;;;;;;;5094395;28;20238;-88
2023/04/06 01:35:01;;;;;;;13.50;11.83;;;;;;;;;;5094114;28;20270;-88
2023/04/06 01:37:32;;;;;;;14.13;11.57;;;;;;;;;;5093978;28;20198;-88
2023/04/06 01:40:02;;;;;;;14.70;12.27;;;;;;;;;;5094294;28;20242;-87
2023/04/06 01:42:31;;;;;;;5.40;4.97;;;;;;;;;;5094081;28;20232;-88
2023/04/06 01:44:59;;;;;;;12.70;9.40;;;;;;;;;;5093955;28;20233;-88
2023/04/06 01:47:28;;;;;;;16.07;12.97;;;;;;;;;;5094451;28;20226;-88
2023/04/06 01:49:56;;;;;;;12.70;11.40;;;;;;;;;;5094255;28;20204;-88
2023/04/06 01:52:25;;;;;;;16.10;10.90;;;;;;;;;;5093965;28;20209;-89
2023/04/06 01:54:53;;;;;;;12.70;9.93;;;;;;;;;;5094000;28;20260;-89
2023/04/06 01:57:23;;;;;;;16.30;11.33;;;;;;;;;;5093952;28;20240;-88
2023/04/06 01:59:51;;;;;;;16.57;13.13;;;;;;;;;;5094361;28;20228;-88
2023/04/06 02:02:20;;;;;;;12.17;9.53;;;;;;;;;;5094204;28;20205;-88
2023/04/06 02:04:48;;;;;;;13.57;10.53;;;;;;;;;;5094106;28;20197;-88
2023/04/06 02:07:17;;;;;;;13.83;10.17;;;;;;;;;;5093658;28;20207;-88
2023/04/06 02:09:45;;;;;;;5.80;4.93;;;;;;;;;;5092726;28;20196;-89
2023/04/06 02:12:13;;;;;;;15.10;11.93;;;;;;;;;;5093851;28;20216;-88
2023/04/06 02:14:43;;;;;;;16.70;11.37;;;;;;;;;;5093409;28;20199;-88
2023/04/06 02:17:12;;;;;;;15.23;9.83;;;;;;;;;;5093458;28;20258;-89
2023/04/06 02:19:40;;;;;;;11.07;8.57;;;;;;;;;;5093371;28;20213;-87
2023/04/06 02:22:09;;;;;;;16.27;11.43;;;;;;;;;;5093429;28;20227;-87
2023/04/06 02:24:37;;;;;;;14.50;11.00;;;;;;;;;;5093601;28;20197;-87
2023/04/06 02:27:06;;;;;;;12.77;11.30;;;;;;;;;;5093021;28;20289;-87
2023/04/06 02:29:34;;;;;;;12.73;11.10;;;;;;;;;;5093156;28;20284;-87
2023/04/06 02:32:04;;;;;;;13.80;9.77;;;;;;;;;;5093671;28;20205;-87
2023/04/06 02:34:33;;;;;;;13.77;11.30;;;;;;;;;;5093479;28;20232;-87
2023/04/06 02:37:01;;;;;;;13.53;10.73;;;;;;;;;;5093810;28;20247;-87
2023/04/06 02:39:33;;;;;;;11.43;7.67;;;;;;;;;;5093752;28;20193;-87
2023/04/06 02:42:01;;;;;;;13.13;9.50;;;;;;;;;;5093802;28;20258;-87
2023/04/06 02:44:30;;;;;;;9.33;8.17;;;;;;;;;;5092706;28;20201;-87
2023/04/06 02:46:58;;;;;;;11.00;8.27;;;;;;;;;;5093363;28;20250;-87
2023/04/06 02:49:28;;;;;;;11.90;9.37;;;;;;;;;;5093447;28;20197;-87
2023/04/06 02:51:56;;;;;;;14.00;11.03;;;;;;;;;;5093677;28;20209;-87
2023/04/06 02:54:25;;;;;;;12.80;10.63;;;;;;;;;;5093065;28;20193;-87
2023/04/06 02:56:53;;;;;;;12.13;9.90;;;;;;;;;;5093436;28;20207;-87
2023/04/06 02:59:22;;;;;;;13.03;10.57;;;;;;;;;;5092796;28;20221;-87
2023/04/06 03:01:50;;;;;;;14.00;10.27;;;;;;;;;;5092693;28;20213;-86
2023/04/06 03:04:21;;;;;;;12.13;9.50;;;;;;;;;;5092775;28;20225;-87
2023/04/06 03:06:51;;;;;;;11.80;10.17;;;;;;;;;;5092876;28;20212;-87
2023/04/06 03:09:19;;;;;;;13.43;10.57;;;;;;;;;;5093091;28;20203;-87
2023/04/06 03:11:48;;;;;;;11.07;8.73;;;;;;;;;;5092629;28;20273;-87
2023/04/06 03:14:21;;;;;;;13.63;11.43;;;;;;;;;;5092729;28;20203;-87
2023/04/06 03:16:49;;;;;;;14.87;10.70;;;;;;;;;;5092757;28;20197;-87
2023/04/06 03:19:18;;;;;;;13.23;10.30;;;;;;;;;;5092481;28;20218;-86
2023/04/06 03:21:47;;;;;;;12.17;8.73;;;;;;;;;;5092639;28;20216;-87
2023/04/06 03:24:16;;;;;;;5.30;4.83;;;;;;;;;;5092439;28;20194;-87
2023/04/06 03:26:45;;;;;;;15.00;10.23;;;;;;;;;;5092375;28;20224;-88
2023/04/06 03:29:13;;;;;;;10.43;8.73;;;;;;;;;;5092079;28;20215;-86
2023/04/06 03:31:42;;;;;;;12.60;10.53;;;;;;;;;;5092475;28;20197;-87
2023/04/06 03:34:11;;;;;;;15.47;11.17;;;;;;;;;;5092669;28;20201;-87
2023/04/06 03:36:39;;;;;;;12.60;9.13;;;;;;;;;;5092231;28;20204;-87
2023/04/06 03:39:08;;;;;;;15.73;10.83;;;;;;;;;;5092895;28;20205;-86
2023/04/06 03:41:38;;;;;;;13.50;10.80;;;;;;;;;;5092090;28;20225;-87
2023/04/06 03:44:07;;;;;;;8.13;6.40;;;;;;;;;;5092482;28;20205;-87
2023/04/06 03:46:35;;;;;;;16.20;10.97;;;;;;;;;;5092278;28;20269;-87
2023/04/06 03:49:04;;;;;;;14.47;11.20;;;;;;;;;;5092268;28;20201;-87
2023/04/06 03:51:32;;;;;;;13.37;10.67;;;;;;;;;;5091889;28;20212;-87
2023/04/06 03:54:01;;;;;;;12.07;9.97;;;;;;;;;;5092323;28;20242;-86
2023/04/06 03:56:29;;;;;;;5.97;5.37;;;;;;;;;;5092225;28;20201;-86
2023/04/06 03:58:59;;;;;;;4.57;4.07;;;;;;;;;;5092139;28;20188;-86
2023/04/06 04:01:28;;;;;;;9.07;6.93;;;;;;;;;;5091687;28;20287;-87
2023/04/06 04:03:56;;;;;;;14.50;9.10;;;;;;;;;;5092154;28;20207;-87
2023/04/06 04:06:25;;;;;;;10.70;8.47;;;;;;;;;;5091679;28;20205;-86
2023/04/06 04:08:53;;;;;;;12.67;10.00;;;;;;;;;;5092283;28;20287;-86
2023/04/06 04:11:22;;;;;;;11.23;9.13;;;;;;;;;;5091720;28;20189;-86
2023/04/06 04:13:50;;;;;;;8.67;7.63;;;;;;;;;;5092306;28;20236;-86
2023/04/06 04:16:20;;;;;;;11.23;9.33;;;;;;;;;;5091656;28;20203;-86
2023/04/06 04:18:48;;;;;;;12.90;11.07;;;;;;;;;;5092461;28;20205;-87
2023/04/06 04:21:18;;;;;;;20.67;15.00;;;;;;;;;;5091720;28;20210;-87
2023/04/06 04:23:46;;;;;;;13.57;11.60;;;;;;;;;;5092350;28;20201;-87
2023/04/06 04:26:15;;;;;;;11.13;9.40;;;;;;;;;;5092321;28;20270;-87
2023/04/06 04:28:43;;;;;;;16.20;12.20;;;;;;;;;;5092389;28;20268;-87
2023/04/06 04:31:12;;;;;;;14.97;10.97;;;;;;;;;;5092080;28;20201;-87
2023/04/06 04:33:42;;;;;;;14.20;10.00;;;;;;;;;;5096019;28;20190;-87
2023/04/06 04:36:10;;;;;;;14.40;11.03;;;;;;;;;;5096104;28;20204;-87
2023/04/06 04:38:39;;;;;;;15.83;12.10;;;;;;;;;;5095991;28;20193;-86
2023/04/06 04:41:08;;;;;;;12.60;8.37;;;;;;;;;;5095947;28;20252;-87
2023/04/06 04:43:37;;;;;;;14.13;11.30;;;;;;;;;;5096281;28;20246;-87
2023/04/06 04:46:06;;;;;;;17.30;12.13;;;;;;;;;;5095691;28;20291;-87
2023/04/06 04:48:35;;;;;;;15.47;12.30;;;;;;;;;;5096284;28;20232;-86
2023/04/06 04:51:05;;;;;;;15.50;12.70;;;;;;;;;;5095961;28;20249;-87
2023/04/06 04:53:34;;;;;;;15.63;10.97;;;;;;;;;;5095290;28;20235;-87
2023/04/06 04:56:02;;;;;;;14.30;12.67;;;;;;;;;;5095793;28;20197;-87
2023/04/06 04:58:32;;;;;;;16.07;12.23;;;;;;;;;;5095859;28;20205;-87
2023/04/06 05:01:00;;;;;;;17.23;11.60;;;;;;;;;;5095585;28;20220;-87
2023/04/06 05:03:29;;;;;;;16.20;12.10;;;;;;;;;;5095866;28;20197;-87
2023/04/06 05:05:58;;;;;;;13.27;9.17;;;;;;;;;;5095657;28;20239;-87
2023/04/06 05:08:27;;;;;;;16.10;10.50;;;;;;;;;;5095567;28;20197;-86
2023/04/06 05:10:58;;;;;;;14.40;10.07;;;;;;;;;;5095395;28;20201;-87
2023/04/06 05:13:27;;;;;;;14.97;10.87;;;;;;;;;;5095528;28;20211;-87
2023/04/06 05:15:55;;;;;;;17.53;11.90;;;;;;;;;;5094950;28;20240;-87
2023/04/06 05:18:24;;;;;;;14.40;11.37;;;;;;;;;;5095161;28;20200;-87
2023/04/06 05:20:52;;;;;;;16.17;9.73;;;;;;;;;;5094417;28;20251;-86
2023/04/06 05:23:21;;;;;;;14.90;11.20;;;;;;;;;;5095342;28;20189;-87
2023/04/06 05:25:51;;;;;;;10.93;9.70;;;;;;;;;;5095867;28;20227;-87
2023/04/06 05:28:20;;;;;;;15.47;10.83;;;;;;;;;;5094993;28;20264;-87
2023/04/06 05:30:48;;;;;;;15.93;10.83;;;;;;;;;;5095287;28;20228;-87
2023/04/06 05:33:17;;;;;;;5.23;4.77;;;;;;;;;;5095585;28;20227;-87
2023/04/06 05:35:45;;;;;;;15.50;12.07;;;;;;;;;;5095595;28;20205;-88
2023/04/06 05:38:14;;;;;;;11.73;8.93;;;;;;;;;;5094154;28;20201;-89
2023/04/06 05:40:42;;;;;;;21.73;10.87;;;;;;;;;;5094496;28;20197;-89
2023/04/06 05:43:12;;;;;;;10.30;6.43;;;;;;;;;;5094086;28;20233;-90
2023/04/06 05:45:40;;;;;;;15.17;9.17;;;;;;;;;;5093861;28;20295;-89
2023/04/06 05:48:09;;;;;;;12.00;8.47;;;;;;;;;;5094293;28;20247;-86
2023/04/06 05:50:37;;;;;;;14.07;10.53;;;;;;;;;;5093958;28;20209;-84
2023/04/06 05:53:06;;;;;;;18.43;11.30;;;;;;;;;;5093838;28;20195;-87
2023/04/06 05:55:34;;;;;;;6.03;3.67;;;;;;;;;;5093840;28;20352;-86
2023/04/06 05:58:03;;;;;;;11.50;10.07;;;;;;;;;;5093776;28;20235;-85
2023/04/06 06:00:33;;;;;;;10.33;7.23;;;;;;;;;;5093702;28;20250;-85
2023/04/06 06:03:03;;;;;;;15.50;12.33;;;;;;;;;;5093465;28;20284;-85
2023/04/06 06:05:32;;;;;;;18.33;12.37;;;;;;;;;;5093548;28;20202;-86
2023/04/06 06:08:02;;;;;;;18.40;14.47;;;;;;;;;;5093669;28;20201;-86
2023/04/06 06:10:30;;;;;;;14.83;12.43;;;;;;;;;;5093909;28;20210;-87
2023/04/06 06:12:59;;;;;;;15.47;10.47;;;;;;;;;;5093640;28;20196;-85
2023/04/06 06:15:31;;;;;;;15.73;11.23;;;;;;;;;;5093495;28;20200;-86
2023/04/06 06:18:01;;;;;;;14.93;11.57;;;;;;;;;;5093474;28;20219;-85
2023/04/06 06:20:30;;;;;;;13.77;10.20;;;;;;;;;;5093791;28;20201;-85
2023/04/06 06:22:59;;;;;;;21.37;14.07;;;;;;;;;;5092939;28;20217;-86
2023/04/06 06:25:27;;;;;;;20.80;14.73;;;;;;;;;;5093433;28;20262;-86
2023/04/06 06:27:56;;;;;;;18.17;14.67;;;;;;;;;;5093517;28;20306;-86
2023/04/06 06:30:24;;;;;;;11.03;7.90;;;;;;;;;;5093027;28;20291;-84
2023/04/06 06:32:52;;;;;;;18.47;12.43;;;;;;;;;;5093061;28;20264;-83
2023/04/06 06:35:22;;;;;;;18.73;13.07;;;;;;;;;;5093540;28;20216;-82
2023/04/06 06:37:51;;;;;;;15.23;9.47;;;;;;;;;;5093270;28;20236;-82
2023/04/06 06:40:23;;;;;;;18.57;13.20;;;;;;;;;;5092746;28;20201;-81
2023/04/06 06:42:52;;;;;;;10.40;8.93;;;;;;;;;;5092906;28;20216;-81
2023/04/06 06:45:20;;;;;;;22.67;17.83;;;;;;;;;;5092756;28;20201;-82
2023/04/06 06:47:49;;;;;;;21.20;17.53;;;;;;;;;;5092976;28;20204;-82
2023/04/06 06:50:23;;;;;;;21.97;17.50;;;;;;;;;;5093171;28;20246;-82
2023/04/06 06:52:53;;;;;;;18.17;15.60;;;;;;;;;;5092768;28;20254;-82
2023/04/06 06:55:21;;;;;;;23.63;20.07;;;;;;;;;;5091795;28;20220;-82
2023/04/06 06:57:50;;;;;;;18.13;14.47;;;;;;;;;;5092562;28;20201;-82
2023/04/06 07:00:20;;;;;;;22.83;16.67;;;;;;;;;;5092983;28;20258;-82
2023/04/06 07:02:49;;;;;;;20.83;17.77;;;;;;;;;;5092164;28;20247;-81
2023/04/06 07:05:18;;;;;;;23.07;19.50;;;;;;;;;;5092471;28;20279;-81
2023/04/06 07:07:57;;;;;;;22.77;15.53;;;;;;;;;;5092231;28;20205;-82
2023/04/06 07:10:26;;;;;;;22.90;17.33;;;;;;;;;;5092288;28;20208;-82
2023/04/06 07:12:54;;;;;;;24.00;16.07;;;;;;;;;;5092292;28;20204;-81
2023/04/06 07:15:23;;;;;;;28.60;19.73;;;;;;;;;;5092342;28;20289;-82
2023/04/06 07:17:54;;;;;;;24.80;19.93;;;;;;;;;;5092184;28;20205;-82
2023/04/06 07:20:23;;;;;;;22.27;16.90;;;;;;;;;;5092149;28;20295;-82
2023/04/06 07:22:51;;;;;;;27.33;15.00;;;;;;;;;;5092266;28;20249;-81
2023/04/06 07:25:21;;;;;;;25.57;17.13;;;;;;;;;;5092159;28;20219;-82
2023/04/06 07:27:53;;;;;;;24.87;18.27;;;;;;;;;;5091852;28;20237;-81
2023/04/06 07:30:22;;;;;;;27.13;21.60;;;;;;;;;;5091843;28;20205;-82
2023/04/06 07:32:50;;;;;;;20.73;12.60;;;;;;;;;;5091546;28;20193;-82
2023/04/06 07:35:19;;;;;;;23.47;18.17;;;;;;;;;;5092379;28;20198;-82
2023/04/06 07:37:47;;;;;;;15.90;12.47;;;;;;;;;;5091801;28;20193;-82
2023/04/06 07:40:16;;;;;;;17.67;13.47;;;;;;;;;;5091504;28;20212;-82
2023/04/06 07:42:46;;;;;;;22.30;17.07;;;;;;;;;;5091509;28;20274;-81
2023/04/06 07:45:15;;;;;;;24.70;18.80;;;;;;;;;;5091464;28;20257;-81
2023/04/06 07:47:43;;;;;;;20.57;11.87;;;;;;;;;;5091330;28;20197;-82
2023/04/06 07:50:12;;;;;;;31.07;23.67;;;;;;;;;;5091368;28;20262;-82
2023/04/06 07:52:41;;;;;;;21.80;15.23;;;;;;;;;;5091788;28;20196;-81
2023/04/06 07:55:09;;;;;;;18.67;14.40;;;;;;;;;;5091282;28;20216;-81
2023/04/06 07:57:38;;;;;;;29.43;19.70;;;;;;;;;;5091708;28;20254;-82
2023/04/06 08:00:10;;;;;;;30.47;21.63;;;;;;;;;;5091660;28;20227;-81
2023/04/06 08:02:38;;;;;;;27.73;21.27;;;;;;;;;;5091109;28;20217;-82
2023/04/06 08:05:07;;;;;;;28.20;19.67;;;;;;;;;;5091488;28;20202;-82
2023/04/06 08:07:36;;;;;;;28.57;20.60;;;;;;;;;;5093467;28;20202;-81
2023/04/06 08:10:05;;;;;;;25.40;16.33;;;;;;;;;;5095409;28;20288;-81
2023/04/06 08:12:34;;;;;;;34.73;24.47;;;;;;;;;;5095894;28;20205;-81
2023/04/06 08:15:03;;;;;;;12.60;8.70;;;;;;;;;;5095966;28;20202;-82
2023/04/06 08:17:34;;;;;;;31.77;26.47;;;;;;;;;;5095251;28;20205;-82
2023/04/06 08:20:04;;;;;;;28.70;21.23;;;;;;;;;;5095751;28;20213;-82
2023/04/06 08:22:32;;;;;;;27.27;22.03;;;;;;;;;;5095745;28;20278;-82
2023/04/06 08:25:01;;;;;;;29.80;20.17;;;;;;;;;;5095046;28;20229;-82
2023/04/06 08:27:29;;;;;;;22.57;18.73;;;;;;;;;;5094880;28;20230;-82
2023/04/06 08:29:58;;;;;;;26.80;19.90;;;;;;;;;;5095161;28;20203;-82
2023/04/06 08:32:26;;;;;;;32.37;26.77;;;;;;;;;;5094972;28;20199;-83
2023/04/06 08:34:56;;;;;;;22.23;19.57;;;;;;;;;;5095710;28;20199;-81
2023/04/06 08:37:25;;;;;;;29.00;21.23;;;;;;;;;;5095114;28;20241;-82
2023/04/06 08:39:53;;;;;;;29.57;26.07;;;;;;;;;;5094559;28;20209;-81
2023/04/06 08:42:23;;;;;;;26.07;20.50;;;;;;;;;;5094989;28;20197;-81
2023/04/06 08:44:52;;;;;;;23.20;19.73;;;;;;;;;;5095066;28;20217;-81
2023/04/06 08:47:21;;;;;;;22.93;18.53;;;;;;;;;;5095046;28;20194;-85
2023/04/06 08:49:52;;;;;;;30.70;21.97;;;;;;;;;;5095462;28;20211;-85
2023/04/06 08:52:22;;;;;;;25.40;18.97;;;;;;;;;;5095619;28;20263;-85
2023/04/06 08:54:51;;;;;;;26.27;20.53;;;;;;;;;;5095037;28;20317;-85
2023/04/06 08:57:20;;;;;;;23.97;18.13;;;;;;;;;;5094910;28;20301;-85
2023/04/06 08:59:49;;;;;;;26.43;19.87;;;;;;;;;;5095301;28;20203;-85
2023/04/06 09:02:19;;;;;;;33.70;25.17;;;;;;;;;;5095226;28;20198;-85
2023/04/06 09:04:47;;;;;;;29.17;25.43;;;;;;;;;;5094972;28;20211;-84
2023/04/06 09:07:17;;;;;;;33.10;24.30;;;;;;;;;;5095115;28;20202;-85
2023/04/06 09:09:48;;;;;;;11.13;8.77;;;;;;;;;;5094826;28;20235;-85
2023/04/06 09:12:26;;;;;;;27.37;20.70;;;;;;;;;;5095318;28;20203;-85
2023/04/06 09:14:55;;;;;;;24.90;21.40;;;;;;;;;;5095143;28;20195;-85
2023/04/06 09:17:24;;;;;;;27.93;25.03;;;;;;;;;;5094553;28;20222;-85
2023/04/06 09:19:53;;;;;;;8.77;6.53;;;;;;;;;;5094648;28;20206;-85
2023/04/06 09:22:22;;;;;;;29.07;23.90;;;;;;;;;;5095181;28;20200;-85
2023/04/06 09:24:52;;;;;;;29.73;24.10;;;;;;;;;;5094929;28;20230;-86
2023/04/06 09:27:31;;;;;;;29.00;22.63;;;;;;;;;;5094530;28;20312;-85
2023/04/06 09:30:07;;;;;;;29.30;20.80;;;;;;;;;;5095152;28;20210;-85
2023/04/06 09:32:46;;;;;;;30.27;21.43;;;;;;;;;;5094595;28;20193;-85
2023/04/06 09:35:15;;;;;;;31.67;22.57;;;;;;;;;;5095084;28;20249;-85
2023/04/06 09:37:44;;;;;;;28.43;25.50;;;;;;;;;;5094597;28;20231;-85
2023/04/06 09:40:14;;;;;;;27.60;19.63;;;;;;;;;;5094599;28;20222;-86
2023/04/06 09:42:43;;;;;;;28.43;22.93;;;;;;;;;;5094640;28;20195;-85
2023/04/06 09:45:12;;;;;;;23.37;20.90;;;;;;;;;;5094803;28;20284;-86
2023/04/06 09:47:41;;;;;;;24.60;20.60;;;;;;;;;;5094335;28;20235;-86
2023/04/06 09:50:10;;;;;;;25.70;18.33;;;;;;;;;;5094697;28;20260;-87
2023/04/06 09:52:40;;;;;;;34.13;26.33;;;;;;;;;;5094652;28;20268;-86
2023/04/06 09:55:09;;;;;;;26.07;23.20;;;;;;;;;;5094026;28;20242;-86
2023/04/06 09:57:43;;;;;;;20.50;12.87;;;;;;;;;;5094463;28;20235;-86
2023/04/06 10:00:14;;;;;;;23.03;20.13;;;;;;;;;;5094414;28;20288;-86
2023/04/06 10:02:52;;;;;;;32.43;25.73;;;;;;;;;;5094478;28;20201;-86
2023/04/06 10:05:23;;;;;;;26.53;21.47;;;;;;;;;;5094342;28;20314;-85
2023/04/06 10:07:52;;;;;;;29.73;24.60;;;;;;;;;;5094190;28;20209;-86
2023/04/06 10:10:28;;;;;;;26.77;22.47;;;;;;;;;;5094183;28;20271;-86
2023/04/06 10:12:59;;;;;;;28.33;23.00;;;;;;;;;;5094958;28;20212;-86
2023/04/06 10:15:29;;;;;;;29.33;26.13;;;;;;;;;;5094310;28;20206;-86
2023/04/06 10:17:57;;;;;;;21.27;18.23;;;;;;;;;;5094218;28;20334;-85
2023/04/06 10:20:29;;;;;;;26.60;23.40;;;;;;;;;;5094325;28;20203;-86
2023/04/06 10:23:03;;;;;;;24.20;17.73;;;;;;;;;;5094027;28;20214;-86
2023/04/06 10:25:32;;;;;;;22.80;20.40;;;;;;;;;;5093309;28;20309;-86
2023/04/06 10:28:03;;;;;;;23.90;21.43;;;;;;;;;;5093374;28;20248;-82
2023/04/06 10:30:31;;;;;;;21.30;17.57;;;;;;;;;;5092538;28;20196;-82
2023/04/06 10:33:00;;;;;;;19.00;16.93;;;;;;;;;;5092919;28;20206;-82
2023/04/06 10:35:38;;;;;;;20.00;17.80;;;;;;;;;;5093169;28;20206;-81
2023/04/06 10:38:07;;;;;;;15.77;13.53;;;;;;;;;;5093411;28;20195;-81
2023/04/06 10:40:37;;;;;;;13.13;11.70;;;;;;;;;;5092806;28;20199;-81
2023/04/06 10:43:11;;;;;;;13.83;12.47;;;;;;;;;;5093188;28;20238;-82
2023/04/06 10:45:40;;;;;;;15.97;12.97;;;;;;;;;;5092750;28;20267;-81
2023/04/06 10:48:15;;;;;;;13.13;11.60;;;;;;;;;;5092848;28;20199;-81
2023/04/06 10:50:46;;;;;;;15.60;13.07;;;;;;;;;;5092926;28;20207;-81
2023/04/06 10:53:22;;;;;;;15.70;14.17;;;;;;;;;;5093108;28;20202;-81
2023/04/06 10:55:51;;;;;;;18.70;14.13;;;;;;;;;;5092458;28;20191;-81
2023/04/06 10:58:21;;;;;;;14.20;12.77;;;;;;;;;;5092920;28;20212;-81
2023/04/06 11:00:50;;;;;;;15.33;13.83;;;;;;;;;;5092752;28;20215;-81
2023/04/06 11:03:20;;;;;;;15.37;13.70;;;;;;;;;;5092529;28;20204;-81
2023/04/06 11:05:49;;;;;;;16.80;15.10;;;;;;;;;;5092886;28;20219;-82
2023/04/06 11:08:24;;;;;;;13.90;12.40;;;;;;;;;;5092244;28;20202;-81
2023/04/06 11:10:52;;;;;;;15.20;13.80;;;;;;;;;;5092331;28;20206;-81
2023/04/06 11:13:22;;;;;;;13.90;12.40;;;;;;;;;;5092370;28;20212;-81
2023/04/06 11:15:51;;;;;;;17.67;15.93;;;;;;;;;;5092832;28;20282;-81
2023/04/06 11:18:19;;;;;;;12.37;10.63;;;;;;;;;;5091720;28;20270;-81
2023/04/06 11:20:51;;;;;;;13.63;11.57;;;;;;;;;;5092431;28;20217;-81
2023/04/06 11:23:26;;;;;;;12.80;11.40;;;;;;;;;;5092330;28;20197;-81
2023/04/06 11:25:54;;;;;;;13.00;11.60;;;;;;;;;;5091708;28;20237;-82
2023/04/06 11:28:24;;;;;;;14.80;13.50;;;;;;;;;;5091603;28;20244;-81
2023/04/06 11:30:53;;;;;;;11.47;10.33;;;;;;;;;;5091923;28;20208;-81
2023/04/06 11:33:22;;;;;;;12.87;11.57;;;;;;;;;;5091825;28;20252;-81
2023/04/06 11:35:51;;;;;;;14.27;12.87;;;;;;;;;;5092222;28;20252;-81
2023/04/06 11:38:20;;;;;;;14.63;13.13;;;;;;;;;;5092017;28;20199;-81
2023/04/06 11:40:54;;;;;;;15.73;14.20;;;;;;;;;;5091929;28;20297;-81
2023/04/06 11:43:30;;;;;;;14.93;13.40;;;;;;;;;;5091529;28;20211;-81
2023/04/06 11:46:02;;;;;;;13.87;12.10;;;;;;;;;;5092215;28;20254;-86
2023/04/06 11:48:31;;;;;;;16.40;15.00;;;;;;;;;;5092200;28;20207;-86
2023/04/06 11:51:00;;;;;;;15.10;13.67;;;;;;;;;;5092316;28;20256;-86
2023/04/06 11:53:29;;;;;;;17.90;16.50;;;;;;;;;;5092376;28;20242;-86
2023/04/06 11:55:59;;;;;;;13.23;11.93;;;;;;;;;;5092396;28;20191;-86
2023/04/06 11:58:29;;;;;;;15.60;14.10;;;;;;;;;;5092146;28;20199;-86
2023/04/06 12:01:04;;;;;;;10.33;9.17;;;;;;;;;;5092630;28;20268;-85
2023/04/06 12:03:33;;;;;;;13.23;11.77;;;;;;;;;;5092190;28;20198;-86
2023/04/06 12:06:01;;;;;;;14.30;12.90;;;;;;;;;;5092274;28;20224;-86
2023/04/06 12:08:30;;;;;;;13.43;12.03;;;;;;;;;;5092981;28;20200;-85
2023/04/06 12:10:59;;;;;;;10.03;8.77;;;;;;;;;;5092384;28;20207;-85
2023/04/06 12:13:29;;;;;;;12.27;11.03;;;;;;;;;;5092219;28;20201;-85
2023/04/06 12:15:58;;;;;;;14.83;13.53;;;;;;;;;;5092478;28;20210;-86
2023/04/06 12:18:26;;;;;;;15.63;14.40;;;;;;;;;;5092034;28;20253;-85
2023/04/06 12:20:55;;;;;;;11.33;9.13;;;;;;;;;;5092101;28;20206;-84
2023/04/06 12:23:23;;;;;;;12.97;11.77;;;;;;;;;;5091919;28;20199;-85
2023/04/06 12:25:52;;;;;;;8.67;7.33;;;;;;;;;;5092204;28;20314;-85
2023/04/06 12:28:22;;;;;;;15.70;14.30;;;;;;;;;;5091731;28;20275;-86
2023/04/06 12:30:53;;;;;;;14.90;13.47;;;;;;;;;;5091997;28;20201;-86
2023/04/06 12:33:21;;;;;;;15.50;14.13;;;;;;;;;;5092281;28;20206;-86
2023/04/06 12:35:50;;;;;;;14.77;13.27;;;;;;;;;;5092818;28;20200;-86
2023/04/06 12:38:20;;;;;;;16.07;14.37;;;;;;;;;;5092615;28;20260;-86
2023/04/06 12:40:48;;;;;;;14.97;13.57;;;;;;;;;;5091518;28;20195;-86
2023/04/06 12:43:17;;;;;;;15.67;14.00;;;;;;;;;;5091491;28;20211;-86
2023/04/06 12:45:45;;;;;;;18.37;16.60;;;;;;;;;;5091956;28;20240;-87
2023/04/06 12:48:15;;;;;;;14.23;12.77;;;;;;;;;;5092025;28;20283;-86
2023/04/06 12:50:44;;;;;;;16.33;14.83;;;;;;;;;;5091917;28;20199;-85
2023/04/06 12:53:12;;;;;;;14.83;13.40;;;;;;;;;;5092758;28;20206;-86
2023/04/06 12:55:41;;;;;;;15.10;13.67;;;;;;;;;;5095594;28;20218;-86
2023/04/06 12:58:10;;;;;;;13.30;11.97;;;;;;;;;;5095264;28;20296;-86
2023/04/06 13:00:38;;;;;;;13.03;11.73;;;;;;;;;;5095572;28;20203;-87
2023/04/06 13:03:07;;;;;;;15.03;13.63;;;;;;;;;;5095347;28;20267;-86
2023/04/06 13:05:37;;;;;;;15.00;13.70;;;;;;;;;;5095297;28;20223;-86
2023/04/06 13:08:05;;;;;;;18.40;16.70;;;;;;;;;;5095296;28;20228;-86
2023/04/06 13:10:34;;;;;;;13.43;12.07;;;;;;;;;;5095037;28;20233;-81
2023/04/06 13:13:03;;;;;;;13.60;12.23;;;;;;;;;;5094516;28;20256;-86
2023/04/06 13:15:31;;;;;;;17.20;15.80;;;;;;;;;;5095128;28;20221;-81
2023/04/06 13:18:00;;;;;;;15.40;14.10;;;;;;;;;;5094868;28;20230;-81
2023/04/06 13:20:29;;;;;;;14.10;12.80;;;;;;;;;;5093990;28;20227;-81
2023/04/06 13:22:59;;;;;;;11.73;9.70;;;;;;;;;;5094413;28;20201;-81
2023/04/06 13:25:28;;;;;;;15.43;13.83;;;;;;;;;;5094481;28;20210;-81
2023/04/06 13:27:56;;;;;;;12.60;11.47;;;;;;;;;;5093940;28;20238;-81
2023/04/06 13:30:25;;;;;;;14.20;13.00;;;;;;;;;;5094585;28;20279;-81
2023/04/06 13:32:55;;;;;;;16.43;15.03;;;;;;;;;;5094719;28;20203;-81
2023/04/06 13:35:24;;;;;;;15.00;13.50;;;;;;;;;;5093732;28;20201;-81
2023/04/06 13:37:53;;;;;;;19.03;17.43;;;;;;;;;;5095345;28;20234;-87
2023/04/06 13:40:23;;;;;;;14.40;12.97;;;;;;;;;;5095903;28;20236;-86
2023/04/06 13:42:52;;;;;;;13.90;12.70;;;;;;;;;;5095510;28;20232;-86
2023/04/06 13:45:20;;;;;;;16.03;14.53;;;;;;;;;;5096819;28;20203;-87
2023/04/06 13:47:49;;;;;;;15.83;14.33;;;;;;;;;;5095282;28;20226;-88
2023/04/06 13:50:18;;;;;;;18.67;16.97;;;;;;;;;;5095232;28;20203;-88
2023/04/06 13:52:46;;;;;;;13.57;12.33;;;;;;;;;;5095326;28;20226;-89
2023/04/06 13:55:15;;;;;;;20.10;18.10;;;;;;;;;;5094924;28;20211;-89
2023/04/06 13:57:45;;;;;;;19.30;17.33;;;;;;;;;;5094843;28;20189;-89
2023/04/06 14:00:14;;;;;;;20.03;18.33;;;;;;;;;;5095478;28;20195;-88
2023/04/06 14:02:43;;;;;;;21.57;19.40;;;;;;;;;;5095269;28;20297;-89
2023/04/06 14:05:12;;;;;;;19.57;17.53;;;;;;;;;;5093744;28;20206;-89
2023/04/06 14:07:43;;;;;;;20.27;18.27;;;;;;;;;;5094820;28;20227;-89
2023/04/06 14:10:13;;;;;;;16.10;14.43;;;;;;;;;;5095285;28;20202;-89
2023/04/06 14:12:43;;;;;;;23.07;20.80;;;;;;;;;;5094812;28;20203;-89
2023/04/06 14:15:14;;;;;;;14.97;13.33;;;;;;;;;;5094965;28;20205;-89
2023/04/06 14:17:42;;;;;;;22.60;20.67;;;;;;;;;;5095013;28;20218;-89
2023/04/06 14:20:13;;;;;;;14.00;12.47;;;;;;;;;;5094219;28;20264;-89
2023/04/06 14:22:44;;;;;;;21.13;19.27;;;;;;;;;;5094397;28;20262;-89
2023/04/06 14:25:12;;;;;;;22.07;19.87;;;;;;;;;;5094679;28;20263;-89
2023/04/06 14:27:41;;;;;;;22.40;20.20;;;;;;;;;;5094351;28;20326;-88
2023/04/06 14:30:11;;;;;;;14.10;12.07;;;;;;;;;;5093999;28;20203;-89